createdAt,value
2022-10-24T00:00:49.038Z,3.93
2022-10-24T00:05:52.854Z,3.57
2022-10-24T00:10:55.001Z,3.70
2022-10-24T00:15:56.646Z,3.97
2022-10-24T00:21:00.113Z,4.13
2022-10-24T00:26:02.229Z,3.27
2022-10-24T00:31:04.604Z,3.93
2022-10-24T00:36:12.755Z,4.27
2022-10-24T00:41:16.320Z,4.10
2022-10-24T00:46:20.094Z,3.97
2022-10-24T00:51:26.016Z,3.80
2022-10-24T00:56:31.258Z,4.70
2022-10-24T01:01:33.745Z,4.50
2022-10-24T01:06:46.828Z,4.50
2022-10-24T01:12:00.127Z,4.83
2022-10-24T01:17:11.450Z,4.37
2022-10-24T01:22:19.272Z,4.67
2022-10-24T01:27:37.871Z,3.87
2022-10-24T01:32:48.012Z,4.20
2022-10-24T01:37:58.579Z,3.60
2022-10-24T01:43:06.098Z,3.97
2022-10-24T01:48:13.805Z,4.50
2022-10-24T01:53:17.459Z,3.90
2022-10-24T01:58:21.137Z,3.67
2022-10-24T02:03:30.866Z,3.83
2022-10-24T02:08:37.749Z,3.70
2022-10-24T02:13:48.198Z,3.27
2022-10-24T02:18:54.932Z,3.97
2022-10-24T02:24:01.795Z,3.37
2022-10-24T02:29:09.232Z,3.17
2022-10-24T02:34:13.767Z,3.23
2022-10-24T02:39:17.802Z,3.10
2022-10-24T02:44:20.131Z,3.10
2022-10-24T02:49:23.132Z,3.70
2022-10-24T02:54:25.174Z,3.23
2022-10-24T02:59:27.195Z,3.07
2022-10-24T03:04:30.520Z,3.53
2022-10-24T03:09:32.558Z,3.17
2022-10-24T03:14:34.494Z,4.17
2022-10-24T03:19:38.138Z,2.70
2022-10-24T03:24:44.321Z,2.77
2022-10-24T03:29:46.354Z,3.10
2022-10-24T03:34:50.010Z,2.83
2022-10-24T03:39:51.959Z,2.43
2022-10-24T03:44:53.663Z,2.50
2022-10-24T03:49:56.818Z,2.80
2022-10-24T03:54:59.030Z,2.00
2022-10-24T04:00:00.743Z,2.77
2022-10-24T04:05:05.268Z,3.23
2022-10-24T04:10:08.099Z,2.20
2022-10-24T04:15:10.821Z,3.20
2022-10-24T04:20:13.981Z,2.93
2022-10-24T04:25:16.995Z,2.77
2022-10-24T04:30:18.728Z,2.90
2022-10-24T04:35:22.073Z,2.63
2022-10-24T04:40:24.151Z,2.37
2022-10-24T04:45:26.291Z,2.87
2022-10-24T04:50:29.618Z,3.20
2022-10-24T04:55:31.995Z,2.87
2022-10-24T05:00:37.172Z,3.07
2022-10-24T05:05:40.374Z,3.10
2022-10-24T05:10:42.842Z,3.23
2022-10-24T05:15:44.906Z,2.83
2022-10-24T05:20:48.255Z,2.90
2022-10-24T05:25:50.336Z,3.73
2022-10-24T05:30:52.011Z,3.37
2022-10-24T05:35:55.734Z,3.37
2022-10-24T05:40:57.784Z,2.83
2022-10-24T05:45:59.892Z,2.80
2022-10-24T05:51:03.080Z,3.67
2022-10-24T05:56:05.661Z,3.30
2022-10-24T06:01:07.717Z,3.20
2022-10-24T06:06:11.175Z,2.97
2022-10-24T06:11:14.166Z,3.57
2022-10-24T06:16:16.279Z,3.30
2022-10-24T06:21:19.868Z,3.43
2022-10-24T06:26:24.013Z,3.07
2022-10-24T06:31:26.609Z,3.70
2022-10-24T06:36:31.582Z,3.87
2022-10-24T06:41:33.832Z,3.30
2022-10-24T06:46:35.719Z,3.90
2022-10-24T06:51:39.146Z,3.33
2022-10-24T06:56:40.867Z,4.40
2022-10-24T07:01:43.183Z,5.10
2022-10-24T07:06:46.448Z,5.20
2022-10-24T07:11:48.112Z,5.67
2022-10-24T07:16:50.073Z,4.47
2022-10-24T07:21:53.644Z,4.03
2022-10-24T07:26:55.585Z,4.30
2022-10-24T07:31:57.717Z,3.77
2022-10-24T07:37:01.137Z,4.00
2022-10-24T07:42:03.230Z,4.30
2022-10-24T07:47:05.348Z,4.27
2022-10-24T07:52:08.354Z,4.50
2022-10-24T07:57:10.043Z,3.53
2022-10-24T08:02:12.452Z,3.80
2022-10-24T08:07:15.575Z,3.37
2022-10-24T08:12:18.385Z,3.13
2022-10-24T08:17:20.224Z,2.80
2022-10-24T08:22:23.756Z,2.40
2022-10-24T08:27:25.460Z,2.37
2022-10-24T08:32:27.516Z,2.63
2022-10-24T08:37:30.695Z,2.57
2022-10-24T08:42:34.097Z,1.73
2022-10-24T08:52:48.637Z,2.13
2022-10-24T08:57:53.669Z,1.60
2022-10-24T09:03:01.774Z,2.47
2022-10-24T09:08:20.296Z,2.27
2022-10-24T09:13:27.565Z,1.80
2022-10-24T09:18:34.321Z,2.23
2022-10-24T09:23:38.308Z,1.70
2022-10-24T09:28:40.510Z,1.70
2022-10-24T09:33:44.149Z,1.37
2022-10-24T09:38:48.639Z,1.60
2022-10-24T09:43:53.463Z,1.40
2022-10-24T09:48:58.589Z,1.50
2022-10-24T09:54:06.530Z,1.60
2022-10-24T09:59:26.862Z,2.23
2022-10-24T10:04:28.804Z,1.60
2022-10-24T10:09:32.015Z,1.60
2022-10-24T10:14:41.462Z,1.80
2022-10-24T10:19:47.495Z,1.30
2022-10-24T10:24:50.898Z,2.30
2022-10-24T10:30:08.796Z,1.30
2022-10-24T10:35:19.669Z,1.17
2022-10-24T10:40:32.414Z,1.20
2022-10-24T10:45:41.567Z,1.60
2022-10-24T10:50:49.817Z,1.63
2022-10-24T10:56:00.647Z,1.40
2022-10-24T11:01:11.504Z,1.80
2022-10-24T11:06:31.436Z,1.50
2022-10-24T11:11:38.817Z,2.53
2022-10-24T11:16:41.817Z,1.57
2022-10-24T11:21:44.773Z,1.10
2022-10-24T11:26:55.097Z,1.50
2022-10-24T11:32:15.857Z,1.10
2022-10-24T11:37:26.246Z,1.27
2022-10-24T11:42:41.391Z,1.37
2022-10-24T11:47:52.214Z,1.20
2022-10-24T11:52:58.981Z,1.00
2022-10-24T11:58:03.459Z,1.30
2022-10-24T12:03:37.778Z,1.20
2022-10-24T12:09:05.339Z,1.50
2022-10-24T12:14:35.940Z,1.70
2022-10-24T12:19:41.092Z,1.77
2022-10-24T12:24:44.265Z,1.00
2022-10-24T12:30:02.091Z,1.60
2022-10-24T12:35:30.473Z,1.40
2022-10-24T12:40:54.075Z,1.27
2022-10-24T12:45:58.561Z,1.53
2022-10-24T12:51:04.612Z,1.60
2022-10-24T13:01:31.236Z,1.27
2022-10-24T13:06:46.859Z,1.20
2022-10-24T13:12:06.379Z,1.60
2022-10-24T13:17:18.713Z,1.33
2022-10-24T13:22:29.532Z,1.47
2022-10-24T13:27:32.209Z,1.27
2022-10-24T13:32:35.587Z,1.20
2022-10-24T13:37:43.345Z,1.20
2022-10-24T13:42:52.261Z,1.10
2022-10-24T13:47:59.796Z,1.20
2022-10-24T13:53:12.464Z,1.57
2022-10-24T13:58:19.231Z,1.70
2022-10-24T14:03:25.447Z,1.20
2022-10-24T14:08:31.642Z,1.10
2022-10-24T14:13:38.320Z,1.10
2022-10-24T14:18:42.412Z,1.30
2022-10-24T14:23:54.843Z,1.20
2022-10-24T14:28:59.916Z,1.27
2022-10-24T14:34:06.297Z,2.33
2022-10-24T14:39:15.524Z,1.13
2022-10-24T14:44:19.820Z,1.77
2022-10-24T14:49:30.330Z,1.70
2022-10-24T14:54:33.787Z,1.43
2022-10-24T14:59:38.495Z,1.63
2022-10-24T15:04:44.344Z,1.27
2022-10-24T15:09:55.365Z,1.60
2022-10-24T15:15:00.721Z,1.70
2022-10-24T15:20:06.059Z,1.40
2022-10-24T15:25:19.089Z,1.60
2022-10-24T15:30:22.666Z,1.50
2022-10-24T15:35:27.075Z,1.77
2022-10-24T15:40:33.390Z,2.20
2022-10-24T15:45:37.203Z,1.87
2022-10-24T15:50:44.254Z,2.07
2022-10-24T15:55:46.753Z,1.23
2022-10-24T16:00:49.172Z,1.40
2022-10-24T16:05:54.951Z,1.40
2022-10-24T16:10:57.329Z,1.80
2022-10-24T16:15:59.565Z,1.40
2022-10-24T16:21:04.351Z,1.37
2022-10-24T16:26:06.497Z,1.23
2022-10-24T16:31:09.355Z,1.30
2022-10-24T16:36:12.961Z,1.20
2022-10-24T16:41:15.951Z,1.23
2022-10-24T16:46:20.781Z,1.23
2022-10-24T16:51:26.998Z,1.40
2022-10-24T16:56:30.011Z,1.33
2022-10-24T17:01:32.529Z,1.27
2022-10-24T17:06:36.389Z,1.40
2022-10-24T17:11:46.501Z,1.73
2022-10-24T17:16:55.424Z,1.10
2022-10-24T17:22:23.254Z,1.30
2022-10-24T17:27:30.736Z,1.10
2022-10-24T17:32:37.023Z,1.00
2022-10-24T17:37:50.019Z,1.10
2022-10-24T17:42:52.715Z,1.20
2022-10-24T17:47:54.845Z,1.20
2022-10-24T17:52:58.355Z,1.13
2022-10-24T17:58:00.428Z,0.97
2022-10-24T18:03:02.510Z,1.03
2022-10-24T18:08:07.157Z,1.03
2022-10-24T18:13:09.665Z,1.60
2022-10-24T18:18:12.031Z,1.33
2022-10-24T18:23:15.475Z,1.10
2022-10-24T18:28:17.215Z,1.40
2022-10-24T18:33:19.109Z,1.30
2022-10-24T18:38:22.158Z,1.30
2022-10-24T18:43:24.084Z,1.77
2022-10-24T18:48:26.842Z,1.93
2022-10-24T18:53:41.593Z,1.23
2022-10-24T18:58:43.950Z,1.43
2022-10-24T19:03:46.757Z,1.20
2022-10-24T19:08:50.564Z,1.33
2022-10-24T19:13:52.690Z,1.00
2022-10-24T19:18:57.583Z,1.20
2022-10-24T19:24:01.306Z,1.30
2022-10-24T19:29:05.768Z,1.60
2022-10-24T19:34:09.334Z,1.30
2022-10-24T19:39:12.795Z,1.10
2022-10-24T19:44:15.640Z,1.00
2022-10-24T19:49:18.196Z,1.47
2022-10-24T19:54:21.335Z,1.27
2022-10-24T19:59:23.642Z,1.53
2022-10-24T20:04:25.975Z,1.40
2022-10-24T20:09:29.308Z,1.17
2022-10-24T20:14:30.997Z,1.03
2022-10-24T20:19:32.709Z,2.03
2022-10-24T20:24:35.930Z,1.33
2022-10-24T20:29:37.630Z,1.47
2022-10-24T20:34:39.697Z,1.33
2022-10-24T20:39:42.724Z,1.30
2022-10-24T20:44:44.602Z,1.50
2022-10-24T20:49:46.302Z,1.27
2022-10-24T20:54:49.585Z,1.20
2022-10-24T20:59:51.299Z,1.60
2022-10-24T21:04:52.984Z,2.50
2022-10-24T21:09:56.080Z,1.90
2022-10-24T21:14:57.867Z,2.10
2022-10-24T21:19:59.568Z,1.70
2022-10-24T21:25:03.004Z,1.73
2022-10-24T21:30:07.977Z,1.70
2022-10-24T21:35:11.802Z,1.63
2022-10-24T21:40:14.908Z,1.50
2022-10-24T21:45:16.773Z,1.80
2022-10-24T21:50:18.683Z,1.80
2022-10-24T21:55:21.795Z,1.70
2022-10-24T22:00:23.570Z,1.83
2022-10-24T22:05:25.400Z,1.60
2022-10-24T22:10:28.397Z,1.87
2022-10-24T22:15:30.112Z,1.63
2022-10-24T22:20:32.228Z,2.03
2022-10-24T22:25:35.351Z,1.77
2022-10-24T22:30:37.817Z,1.70
2022-10-24T22:35:40.237Z,1.80
2022-10-24T22:40:43.930Z,1.67
2022-10-24T22:45:55.697Z,2.07
2022-10-24T22:50:57.673Z,1.93
2022-10-24T22:56:12.662Z,1.77
2022-10-24T23:01:28.835Z,2.10
2022-10-24T23:06:39.964Z,2.23
2022-10-24T23:11:43.724Z,2.10
2022-10-24T23:16:50.841Z,1.80
2022-10-24T23:21:56.236Z,2.17
2022-10-24T23:27:20.696Z,1.93
2022-10-24T23:32:24.581Z,2.23
2022-10-24T23:37:32.955Z,1.80
2022-10-24T23:42:36.744Z,1.73
2022-10-24T23:47:51.311Z,1.97
2022-10-24T23:53:14.076Z,1.80
2022-10-24T23:58:18.004Z,1.83
